Time;durP1;ratioP1;P1;durP2;ratioP2;P2;SDS_P1;SDS_P2;PMS_P1;PMS_P2;Temp;Humidity;BMP_temperature;BMP_pressure;BME280_temperature;BME280_humidity;BME280_pressure;Samples;Min_cycle;Max_cycle;Signal;HPM_P1;HPM_P2
2023/12/13 00:00:08;;;;;;;11.17;2.60;;;8.70;99.90;;;;;;5061113;28;20216;-55
2023/12/13 00:02:36;;;;;;;8.20;2.33;;;8.70;99.90;;;;;;5066200;28;20575;-57
2023/12/13 00:05:06;;;;;;;11.97;2.90;;;8.70;99.90;;;;;;5066261;28;20207;-57
2023/12/13 00:07:34;;;;;;;9.83;2.87;;;8.80;99.90;;;;;;5061122;28;20885;-57
2023/12/13 00:10:04;;;;;;;19.27;3.00;;;8.80;99.90;;;;;;5067209;28;20219;-57
2023/12/13 00:12:32;;;;;;;13.20;2.83;;;8.70;99.90;;;;;;5071333;28;20238;-58
2023/12/13 00:15:01;;;;;;;12.73;3.03;;;8.70;99.90;;;;;;5069101;28;20253;-56
2023/12/13 00:17:30;;;;;;;11.77;2.73;;;8.70;99.90;;;;;;5070401;28;20222;-56
2023/12/13 00:20:17;;;;;;;9.77;3.20;;;8.80;99.90;;;;;;5072727;28;20215;-57
2023/12/13 00:22:45;;;;;;;10.47;2.73;;;8.80;99.90;;;;;;5066639;28;20243;-56
2023/12/13 00:25:16;;;;;;;14.03;3.37;;;8.80;99.90;;;;;;5065258;28;20701;-57
2023/12/13 00:27:44;;;;;;;15.27;3.33;;;8.80;99.90;;;;;;5068962;28;20311;-57
2023/12/13 00:30:14;;;;;;;18.17;3.67;;;8.80;99.90;;;;;;5069496;28;20238;-57
2023/12/13 00:32:45;;;;;;;16.30;3.47;;;8.80;99.90;;;;;;5064033;28;20555;-57
2023/12/13 00:35:13;;;;;;;14.63;3.30;;;8.90;99.90;;;;;;5070003;28;20235;-56
2023/12/13 00:37:41;;;;;;;17.97;3.50;;;8.90;99.90;;;;;;5068209;28;20185;-57
2023/12/13 00:40:11;;;;;;;18.37;3.20;;;8.90;99.90;;;;;;5067069;28;20230;-57
2023/12/13 00:42:39;;;;;;;16.37;3.23;;;8.90;99.90;;;;;;5072562;28;20228;-56
2023/12/13 00:45:08;;;;;;;18.37;3.93;;;8.80;99.90;;;;;;5064646;28;20226;-57
2023/12/13 00:47:38;;;;;;;10.63;3.20;;;8.90;99.90;;;;;;5068327;28;20345;-56
2023/12/13 00:50:08;;;;;;;22.90;3.87;;;8.90;99.90;;;;;;5065441;28;20211;-57
2023/12/13 00:52:36;;;;;;;17.43;3.50;;;8.90;99.90;;;;;;5066149;28;20284;-57
2023/12/13 00:55:07;;;;;;;18.93;3.73;;;8.80;99.90;;;;;;5058612;28;20224;-57
2023/12/13 00:57:36;;;;;;;10.83;3.87;;;8.90;99.90;;;;;;5067074;28;20265;-57
2023/12/13 01:00:05;;;;;;;17.10;4.13;;;8.90;99.90;;;;;;5068406;28;20226;-57
2023/12/13 01:02:33;;;;;;;18.27;3.10;;;8.90;99.90;;;;;;5074421;28;20216;-57
2023/12/13 01:05:04;;;;;;;11.80;3.47;;;8.90;99.90;;;;;;5063185;28;20193;-57
2023/12/13 01:07:32;;;;;;;20.17;3.07;;;8.90;99.90;;;;;;5068319;28;20215;-57
2023/12/13 01:10:01;;;;;;;16.47;3.57;;;8.80;99.90;;;;;;5070918;28;20679;-56
2023/12/13 01:12:29;;;;;;;11.13;3.20;;;8.90;99.90;;;;;;5068089;28;20576;-57
2023/12/13 01:14:57;;;;;;;19.20;3.80;;;8.80;99.90;;;;;;5069989;28;20212;-56
2023/12/13 01:17:25;;;;;;;12.63;3.30;;;8.80;99.90;;;;;;5070911;28;20227;-57
2023/12/13 01:19:54;;;;;;;17.90;3.37;;;8.80;99.90;;;;;;5064383;28;20194;-57
2023/12/13 01:22:23;;;;;;;16.93;3.63;;;8.80;99.90;;;;;;5068212;28;20197;-57
2023/12/13 01:24:51;;;;;;;11.40;3.07;;;8.80;99.90;;;;;;5069039;28;20622;-57
2023/12/13 01:27:20;;;;;;;16.30;3.27;;;8.80;99.90;;;;;;5069689;28;20224;-57
2023/12/13 01:29:49;;;;;;;11.00;3.00;;;8.70;99.90;;;;;;5070751;28;20212;-57
2023/12/13 01:32:17;;;;;;;17.57;3.30;;;8.70;99.90;;;;;;5069618;28;20235;-57
2023/12/13 01:34:45;;;;;;;15.50;3.17;;;8.70;99.90;;;;;;5068710;28;20604;-57
2023/12/13 01:37:13;;;;;;;20.07;3.80;;;8.70;99.90;;;;;;5071211;28;20547;-57
2023/12/13 01:39:43;;;;;;;16.20;3.23;;;8.70;99.90;;;;;;5068737;28;20216;-56
2023/12/13 01:42:11;;;;;;;18.60;3.87;;;8.70;99.90;;;;;;5070975;28;20220;-57
2023/12/13 01:44:39;;;;;;;17.03;3.70;;;8.70;99.90;;;;;;5067300;28;20231;-57
2023/12/13 01:47:08;;;;;;;20.27;3.80;;;8.70;99.90;;;;;;5072045;28;20191;-56
2023/12/13 01:49:36;;;;;;;23.60;4.40;;;8.80;99.90;;;;;;5066651;28;20872;-57
2023/12/13 01:52:06;;;;;;;14.87;3.60;;;8.80;99.90;;;;;;5069713;28;20212;-57
2023/12/13 01:54:36;;;;;;;18.30;3.70;;;8.70;99.90;;;;;;5063606;28;20531;-57
2023/12/13 01:57:09;;;;;;;19.27;3.53;;;8.80;99.90;;;;;;5067701;28;21055;-57
2023/12/13 01:59:38;;;;;;;16.93;3.90;;;8.70;99.90;;;;;;5066595;28;20234;-56
2023/12/13 02:02:07;;;;;;;23.07;4.03;;;8.70;99.90;;;;;;5072294;28;20314;-57
2023/12/13 02:04:36;;;;;;;17.50;3.93;;;8.70;99.90;;;;;;5064162;28;20651;-57
2023/12/13 02:07:05;;;;;;;18.07;4.00;;;8.70;99.90;;;;;;5066576;28;20594;-58
2023/12/13 02:09:33;;;;;;;18.57;3.80;;;8.70;99.90;;;;;;5075365;28;20236;-57
2023/12/13 02:12:01;;;;;;;18.20;4.10;;;8.70;99.90;;;;;;5066717;28;20232;-57
2023/12/13 02:14:31;;;;;;;13.03;3.47;;;8.80;99.90;;;;;;5071047;28;20216;-57
2023/12/13 02:16:59;;;;;;;23.10;3.80;;;8.80;99.90;;;;;;5064681;28;20238;-56
2023/12/13 02:19:28;;;;;;;19.83;3.60;;;8.80;99.90;;;;;;5072730;28;20189;-58
2023/12/13 02:21:56;;;;;;;20.60;3.27;;;8.80;99.90;;;;;;5068966;28;20242;-58
2023/12/13 02:24:30;;;;;;;17.97;3.83;;;8.80;99.90;;;;;;5070876;28;20233;-57
2023/12/13 02:26:58;;;;;;;18.93;3.27;;;8.80;99.90;;;;;;5068335;28;20224;-57
2023/12/13 02:29:26;;;;;;;22.77;3.60;;;8.80;99.90;;;;;;5069922;28;20234;-56
2023/12/13 02:31:54;;;;;;;16.67;3.50;;;8.80;99.90;;;;;;5069697;28;20199;-57
2023/12/13 02:34:23;;;;;;;15.67;3.40;;;8.70;99.90;;;;;;5074821;28;20341;-57
2023/12/13 02:36:51;;;;;;;20.23;3.83;;;8.70;99.90;;;;;;5071759;28;20216;-57
2023/12/13 02:39:20;;;;;;;18.87;3.53;;;8.70;99.90;;;;;;5071360;28;20215;-57
2023/12/13 02:41:50;;;;;;;16.53;3.80;;;8.70;99.90;;;;;;5069492;28;20686;-57
2023/12/13 02:44:18;;;;;;;17.17;4.07;;;8.70;99.90;;;;;;5071016;28;20720;-58
2023/12/13 02:46:47;;;;;;;19.33;3.87;;;8.70;99.90;;;;;;5069727;28;20574;-57
2023/12/13 02:49:15;;;;;;;19.80;3.60;;;8.60;99.90;;;;;;5063876;28;20228;-57
2023/12/13 02:51:43;;;;;;;18.33;3.70;;;8.70;99.90;;;;;;5064971;28;20216;-58
2023/12/13 02:54:12;;;;;;;19.87;3.37;;;8.60;99.90;;;;;;5065934;28;20217;-57
2023/12/13 02:56:40;;;;;;;19.57;4.13;;;8.60;99.90;;;;;;5068818;28;20219;-57
2023/12/13 02:59:09;;;;;;;14.00;4.17;;;8.60;99.90;;;;;;5064514;28;20283;-56
2023/12/13 03:01:38;;;;;;;26.10;4.40;;;8.60;99.90;;;;;;5070619;28;20206;-57
2023/12/13 03:04:06;;;;;;;17.03;3.73;;;8.70;99.90;;;;;;5067002;28;20233;-57
2023/12/13 03:06:34;;;;;;;25.57;3.90;;;8.70;99.90;;;;;;5071749;28;20223;-57
2023/12/13 03:09:02;;;;;;;16.37;3.60;;;8.70;99.90;;;;;;5067391;28;20586;-55
2023/12/13 03:11:31;;;;;;;20.07;3.73;;;8.70;99.90;;;;;;5066407;28;20224;-57
2023/12/13 03:13:59;;;;;;;23.73;3.70;;;8.70;99.90;;;;;;5070140;28;20191;-56
2023/12/13 03:16:28;;;;;;;20.80;4.00;;;8.70;99.90;;;;;;5066886;28;20220;-57
2023/12/13 03:18:57;;;;;;;25.70;4.47;;;8.80;99.90;;;;;;5065239;28;20212;-57
2023/12/13 03:21:25;;;;;;;25.63;4.10;;;8.70;99.90;;;;;;5063797;28;20227;-57
2023/12/13 03:23:54;;;;;;;20.43;3.90;;;8.70;99.90;;;;;;5078211;28;20216;-57
2023/12/13 03:26:25;;;;;;;19.87;3.50;;;8.80;99.90;;;;;;5071138;28;20317;-58
2023/12/13 03:28:53;;;;;;;24.60;4.10;;;8.80;99.90;;;;;;5070568;28;21340;-58
2023/12/13 03:31:22;;;;;;;21.00;3.87;;;8.80;99.90;;;;;;5071710;28;20229;-57
2023/12/13 03:33:51;;;;;;;14.23;3.60;;;8.80;99.90;;;;;;5068844;28;20617;-56
2023/12/13 03:36:19;;;;;;;21.27;3.57;;;8.80;99.90;;;;;;5064094;28;20274;-57
2023/12/13 03:38:48;;;;;;;19.73;3.93;;;8.70;99.90;;;;;;5072145;28;20312;-57
2023/12/13 03:41:16;;;;;;;16.00;3.37;;;8.70;99.90;;;;;;5072013;28;20224;-57
2023/12/13 03:43:46;;;;;;;18.70;3.70;;;8.80;99.90;;;;;;5071309;28;20215;-57
2023/12/13 03:46:15;;;;;;;20.67;4.10;;;8.80;99.90;;;;;;5068046;28;20216;-58
2023/12/13 03:48:43;;;;;;;15.77;3.70;;;8.80;99.90;;;;;;5071017;28;20211;-58
2023/12/13 03:51:12;;;;;;;17.63;3.93;;;8.80;99.90;;;;;;5068368;28;20298;-57
2023/12/13 03:53:42;;;;;;;19.63;3.93;;;8.70;99.90;;;;;;5069812;28;20215;-57
2023/12/13 03:56:11;;;;;;;17.10;4.50;;;8.70;99.90;;;;;;5070176;28;20208;-57
2023/12/13 03:58:39;;;;;;;18.37;4.00;;;8.70;99.90;;;;;;5065691;28;20206;-57
2023/12/13 04:01:08;;;;;;;22.07;3.83;;;8.70;99.90;;;;;;5071498;28;20238;-57
2023/12/13 04:03:37;;;;;;;21.00;3.70;;;8.70;99.90;;;;;;5074279;28;20240;-57
2023/12/13 04:06:06;;;;;;;18.10;3.43;;;8.70;99.90;;;;;;5072735;28;20224;-57
2023/12/13 04:08:35;;;;;;;20.00;4.37;;;8.60;99.90;;;;;;5074259;28;20812;-57
2023/12/13 04:11:04;;;;;;;19.20;3.73;;;8.70;99.90;;;;;;5076994;28;20542;-57
2023/12/13 04:13:32;;;;;;;13.33;3.40;;;8.70;99.90;;;;;;5074205;28;20199;-57
2023/12/13 04:16:00;;;;;;;27.47;3.80;;;8.70;99.90;;;;;;5068084;28;20295;-57
2023/12/13 04:18:29;;;;;;;19.17;3.97;;;8.60;99.90;;;;;;5073465;28;20675;-57
2023/12/13 04:20:57;;;;;;;14.97;3.73;;;8.60;99.90;;;;;;5073423;28;20216;-57
2023/12/13 04:23:25;;;;;;;15.97;3.73;;;8.60;99.90;;;;;;5074408;28;20243;-57
2023/12/13 04:25:55;;;;;;;27.93;5.03;;;8.60;99.90;;;;;;5075315;28;20208;-57
2023/12/13 04:28:23;;;;;;;23.13;4.07;;;8.60;99.90;;;;;;5075148;28;20196;-56
2023/12/13 04:30:52;;;;;;;14.80;3.93;;;8.60;99.90;;;;;;5068109;28;20690;-57
2023/12/13 04:33:20;;;;;;;22.40;4.63;;;8.60;99.90;;;;;;5072333;28;20747;-57
2023/12/13 04:35:48;;;;;;;21.33;4.13;;;8.60;99.90;;;;;;5072744;28;20223;-57
2023/12/13 04:38:16;;;;;;;20.33;3.90;;;8.60;99.90;;;;;;5073762;28;20735;-57
2023/12/13 04:40:45;;;;;;;22.80;4.07;;;8.60;99.90;;;;;;5075136;28;20654;-57
2023/12/13 04:43:14;;;;;;;19.80;4.43;;;8.60;99.90;;;;;;5070896;28;20783;-57
2023/12/13 04:45:42;;;;;;;17.63;3.80;;;8.60;99.90;;;;;;5075001;28;20273;-57
2023/12/13 04:48:11;;;;;;;20.73;3.73;;;8.60;99.90;;;;;;5069425;28;20234;-57
2023/12/13 04:50:39;;;;;;;17.77;3.77;;;8.60;99.90;;;;;;5071779;28;20212;-58
2023/12/13 04:53:07;;;;;;;12.20;4.00;;;8.60;99.90;;;;;;5066915;28;20207;-57
2023/12/13 04:55:35;;;;;;;25.87;4.30;;;8.60;99.90;;;;;;5073242;28;20188;-57
2023/12/13 04:58:04;;;;;;;17.70;3.90;;;8.60;99.90;;;;;;5081185;28;20208;-57
2023/12/13 05:00:34;;;;;;;17.47;3.73;;;8.50;99.90;;;;;;5068792;28;20220;-58
2023/12/13 05:03:02;;;;;;;11.50;3.27;;;8.40;99.90;;;;;;5071854;28;20208;-57
2023/12/13 05:05:30;;;;;;;17.07;4.57;;;8.40;99.90;;;;;;5070219;28;20232;-57
2023/12/13 05:07:59;;;;;;;18.17;4.20;;;8.30;99.90;;;;;;5068894;28;20238;-57
2023/12/13 05:10:27;;;;;;;24.57;4.23;;;8.30;99.90;;;;;;5066969;28;20219;-57
2023/12/13 05:12:55;;;;;;;18.47;3.80;;;8.30;99.90;;;;;;5068035;28;20207;-57
2023/12/13 05:15:23;;;;;;;12.17;3.70;;;8.30;99.90;;;;;;5063697;28;20242;-57
2023/12/13 05:17:53;;;;;;;16.33;4.20;;;8.20;99.90;;;;;;5072838;28;20212;-57
2023/12/13 05:20:21;;;;;;;23.33;4.87;;;8.20;99.90;;;;;;5073170;28;20222;-57
2023/12/13 05:22:49;;;;;;;21.67;4.43;;;8.10;99.90;;;;;;5069617;28;20622;-57
2023/12/13 05:25:18;;;;;;;23.90;4.90;;;8.10;99.90;;;;;;5050903;28;20223;-58
2023/12/13 05:27:46;;;;;;;18.73;4.60;;;8.20;99.90;;;;;;5047518;28;20790;-57
2023/12/13 05:30:14;;;;;;;23.90;4.97;;;8.30;99.90;;;;;;5054173;28;20220;-55
2023/12/13 05:32:43;;;;;;;13.77;4.00;;;8.30;99.90;;;;;;5052291;28;20219;-57
2023/12/13 05:35:13;;;;;;;14.97;5.17;;;8.30;99.90;;;;;;5053545;28;20219;-57
2023/12/13 05:37:41;;;;;;;13.63;4.17;;;8.40;99.90;;;;;;5052385;28;20196;-57
2023/12/13 05:40:10;;;;;;;12.70;4.07;;;8.30;99.90;;;;;;5048269;28;20278;-57
2023/12/13 05:42:38;;;;;;;24.47;4.73;;;8.40;99.90;;;;;;5051270;28;20639;-57
2023/12/13 05:45:08;;;;;;;14.70;4.33;;;8.40;99.90;;;;;;5051323;28;20559;-57
2023/12/13 05:47:36;;;;;;;16.50;4.77;;;8.40;99.90;;;;;;5047646;28;20231;-57
2023/12/13 05:50:06;;;;;;;18.93;4.30;;;8.50;99.90;;;;;;5049728;28;20212;-57
2023/12/13 05:52:36;;;;;;;18.87;4.67;;;8.40;99.90;;;;;;5040902;28;20190;-57
2023/12/13 05:55:05;;;;;;;20.93;4.20;;;8.40;99.90;;;;;;5050207;28;20224;-57
2023/12/13 05:57:33;;;;;;;20.43;4.77;;;8.40;99.90;;;;;;5049693;28;20219;-57
2023/12/13 06:00:06;;;;;;;22.50;5.97;;;8.40;99.90;;;;;;5049819;28;20231;-57
2023/12/13 06:02:35;;;;;;;22.77;4.90;;;8.40;99.90;;;;;;5046188;28;20212;-57
2023/12/13 06:05:04;;;;;;;17.20;4.57;;;8.40;99.90;;;;;;5051465;28;20636;-57
2023/12/13 06:07:33;;;;;;;22.67;5.67;;;8.40;99.90;;;;;;5060099;28;20265;-57
2023/12/13 06:10:05;;;;;;;21.13;4.67;;;8.40;99.90;;;;;;5049817;28;20228;-57
2023/12/13 06:12:33;;;;;;;14.60;4.70;;;8.40;99.90;;;;;;5045259;28;20217;-58
2023/12/13 06:15:02;;;;;;;23.67;5.07;;;8.40;99.90;;;;;;5052279;28;20212;-57
2023/12/13 06:17:30;;;;;;;20.50;5.00;;;8.40;99.90;;;;;;5050576;28;20251;-56
2023/12/13 06:20:00;;;;;;;21.77;5.53;;;8.40;99.90;;;;;;5050628;28;20216;-57
2023/12/13 06:22:29;;;;;;;15.03;5.10;;;8.40;99.90;;;;;;5072845;28;20508;-57
2023/12/13 06:24:57;;;;;;;18.03;5.50;;;8.40;99.90;;;;;;5054832;28;20220;-57
2023/12/13 06:27:27;;;;;;;24.60;5.20;;;8.40;99.90;;;;;;5048429;28;20232;-57
2023/12/13 06:29:55;;;;;;;17.20;5.10;;;8.40;99.90;;;;;;5048008;28;20709;-57
2023/12/13 06:32:25;;;;;;;19.53;5.30;;;8.40;99.90;;;;;;5045824;28;20213;-57
2023/12/13 06:34:53;;;;;;;18.03;4.30;;;8.50;99.90;;;;;;5043182;28;20216;-57
2023/12/13 06:37:21;;;;;;;19.23;5.10;;;8.40;99.90;;;;;;5043584;28;20182;-58
2023/12/13 06:39:51;;;;;;;16.73;5.43;;;8.40;99.90;;;;;;5048416;28;20259;-57
2023/12/13 06:42:19;;;;;;;15.60;4.83;;;8.40;99.90;;;;;;5046440;28;20686;-57
2023/12/13 06:44:49;;;;;;;17.13;4.57;;;8.40;99.90;;;;;;5046020;28;20220;-57
2023/12/13 06:47:17;;;;;;;23.77;5.33;;;8.40;99.90;;;;;;5053216;28;20308;-57
2023/12/13 06:49:46;;;;;;;19.80;5.10;;;8.40;99.90;;;;;;5050773;28;20188;-57
2023/12/13 06:52:15;;;;;;;18.50;4.50;;;8.40;99.90;;;;;;5051187;28;20753;-57
2023/12/13 06:54:43;;;;;;;11.33;4.57;;;8.40;99.90;;;;;;5065718;28;20841;-57
2023/12/13 06:57:12;;;;;;;19.37;5.60;;;8.40;99.90;;;;;;5066789;28;21465;-57
2023/12/13 06:59:40;;;;;;;17.03;4.80;;;8.40;99.90;;;;;;5063036;28;20219;-57
2023/12/13 07:02:09;;;;;;;20.53;5.07;;;8.40;99.90;;;;;;5063342;28;20219;-57
2023/12/13 07:04:38;;;;;;;28.23;5.90;;;8.40;99.90;;;;;;5070419;28;20200;-57
2023/12/13 07:07:06;;;;;;;13.07;4.90;;;8.40;99.90;;;;;;5070087;28;20222;-57
2023/12/13 07:09:34;;;;;;;16.07;5.00;;;8.40;99.90;;;;;;5066773;28;20319;-56
2023/12/13 07:12:02;;;;;;;23.63;5.00;;;8.40;99.90;;;;;;5068511;28;20212;-57
2023/12/13 07:14:31;;;;;;;13.80;4.40;;;8.40;99.90;;;;;;5070408;28;20578;-57
2023/12/13 07:16:59;;;;;;;18.07;4.83;;;8.40;99.90;;;;;;5067387;28;20291;-57
2023/12/13 07:19:29;;;;;;;14.53;4.27;;;8.40;99.90;;;;;;5066781;28;20253;-57
2023/12/13 07:22:00;;;;;;;19.57;4.70;;;8.50;99.90;;;;;;5066165;28;20215;-56
2023/12/13 07:24:28;;;;;;;15.63;3.93;;;8.50;99.90;;;;;;5065743;28;20752;-57
2023/12/13 07:26:56;;;;;;;25.07;4.10;;;8.40;99.90;;;;;;5060223;28;20216;-57
2023/12/13 07:29:25;;;;;;;17.60;3.80;;;8.40;99.90;;;;;;5069855;28;20220;-57
2023/12/13 07:31:56;;;;;;;22.37;4.53;;;8.40;99.90;;;;;;5064479;28;20672;-57
2023/12/13 07:34:24;;;;;;;18.80;3.90;;;8.40;99.90;;;;;;5065614;28;20674;-57
2023/12/13 07:36:54;;;;;;;14.20;3.63;;;8.40;99.90;;;;;;5065067;28;20305;-57
2023/12/13 07:39:24;;;;;;;19.07;3.80;;;8.40;99.90;;;;;;5064387;28;20242;-57
2023/12/13 07:41:52;;;;;;;20.03;3.80;;;8.40;99.90;;;;;;5063969;28;20219;-58
2023/12/13 07:44:20;;;;;;;13.80;3.83;;;8.40;99.90;;;;;;5069363;28;20219;-57
2023/12/13 07:46:48;;;;;;;22.63;3.80;;;8.50;99.90;;;;;;5059618;28;20578;-57
2023/12/13 07:49:18;;;;;;;22.00;4.50;;;8.50;99.90;;;;;;5068937;28;20298;-57
2023/12/13 07:51:47;;;;;;;13.40;4.20;;;8.50;99.90;;;;;;5056795;28;20216;-57
2023/12/13 07:54:16;;;;;;;12.73;3.83;;;8.40;99.90;;;;;;5045630;28;20296;-57
2023/12/13 07:56:45;;;;;;;13.27;4.03;;;8.50;99.90;;;;;;5055888;28;20208;-57
2023/12/13 07:59:14;;;;;;;14.87;4.20;;;8.50;99.90;;;;;;5047148;28;20605;-57
2023/12/13 08:01:42;;;;;;;10.60;4.10;;;8.50;99.90;;;;;;5044048;28;20188;-57
2023/12/13 08:04:10;;;;;;;11.77;4.20;;;8.50;99.90;;;;;;5045287;28;20221;-56
2023/12/13 08:06:38;;;;;;;19.73;4.70;;;8.50;99.90;;;;;;5050344;28;20563;-57
2023/12/13 08:09:09;;;;;;;14.23;4.67;;;8.50;99.90;;;;;;5043326;28;20763;-57
2023/12/13 08:11:39;;;;;;;11.57;4.63;;;8.50;99.90;;;;;;5049337;28;20307;-58
2023/12/13 08:14:07;;;;;;;17.00;4.53;;;8.50;99.90;;;;;;5044924;28;20185;-57
2023/12/13 08:16:36;;;;;;;12.10;4.93;;;8.50;99.90;;;;;;5044394;28;20272;-57
2023/12/13 08:19:04;;;;;;;21.73;4.87;;;8.60;99.90;;;;;;5049653;28;20255;-58
2023/12/13 08:21:33;;;;;;;13.40;4.67;;;8.60;99.90;;;;;;5050010;28;20217;-57
2023/12/13 08:24:01;;;;;;;17.40;4.83;;;8.60;99.90;;;;;;5037742;28;20221;-57
2023/12/13 08:26:29;;;;;;;17.47;4.83;;;8.60;99.90;;;;;;5042398;28;20232;-57
2023/12/13 08:28:59;;;;;;;15.33;5.53;;;8.60;99.90;;;;;;5051787;28;20212;-56
2023/12/13 08:31:34;;;;;;;14.30;4.63;;;8.60;99.90;;;;;;5045459;28;20587;-57
2023/12/13 08:34:02;;;;;;;12.97;4.67;;;8.60;99.90;;;;;;5047139;28;20307;-57
2023/12/13 08:36:31;;;;;;;15.33;5.47;;;8.60;99.90;;;;;;5039220;28;20221;-57
2023/12/13 08:39:00;;;;;;;17.87;4.90;;;8.60;99.90;;;;;;5057317;28;20312;-55
2023/12/13 08:41:30;;;;;;;16.63;5.67;;;8.60;99.90;;;;;;5067963;28;20220;-57
2023/12/13 08:43:59;;;;;;;23.73;5.70;;;8.60;99.90;;;;;;5062356;28;20215;-58
2023/12/13 08:46:28;;;;;;;16.83;5.30;;;8.60;99.90;;;;;;5066627;28;20193;-57
2023/12/13 08:48:56;;;;;;;18.43;5.80;;;8.70;99.90;;;;;;5064050;28;20235;-57
2023/12/13 08:51:25;;;;;;;11.60;5.47;;;8.70;99.90;;;;;;5051162;28;20221;-57
2023/12/13 08:53:55;;;;;;;17.63;6.73;;;8.60;99.90;;;;;;5042127;28;20224;-58
2023/12/13 08:56:23;;;;;;;17.17;6.27;;;8.70;99.90;;;;;;5044034;28;20247;-57
2023/12/13 08:59:11;;;;;;;14.70;6.13;;;8.70;99.90;;;;;;5051738;28;20204;-57
2023/12/13 09:01:58;;;;;;;21.77;6.53;;;8.60;99.90;;;;;;5045002;28;20205;-58
2023/12/13 09:04:27;;;;;;;23.77;6.90;;;8.60;99.90;;;;;;5047335;28;20608;-58
2023/12/13 09:06:55;;;;;;;16.97;7.13;;;8.60;99.90;;;;;;5048832;28;20216;-57
2023/12/13 09:09:24;;;;;;;16.50;7.90;;;8.60;99.90;;;;;;5043952;28;20221;-57
2023/12/13 09:11:52;;;;;;;17.33;7.20;;;8.70;99.90;;;;;;5049753;28;20218;-57
2023/12/13 09:14:22;;;;;;;22.27;7.43;;;8.70;99.90;;;;;;5050685;28;20274;-57
2023/12/13 09:16:50;;;;;;;22.00;7.57;;;8.70;99.90;;;;;;5051907;28;20197;-58
2023/12/13 09:19:19;;;;;;;15.80;7.40;;;8.70;99.90;;;;;;5053186;28;20224;-57
2023/12/13 09:21:53;;;;;;;17.60;7.93;;;8.80;99.90;;;;;;5062814;28;20212;-57
2023/12/13 09:24:21;;;;;;;21.17;7.53;;;8.80;99.90;;;;;;5071152;28;20227;-57
2023/12/13 09:26:50;;;;;;;19.17;7.13;;;8.80;99.90;;;;;;5070161;28;20220;-57
2023/12/13 09:29:19;;;;;;;19.83;7.57;;;8.80;99.90;;;;;;5067220;28;20219;-57
2023/12/13 09:31:48;;;;;;;14.87;7.13;;;8.80;99.90;;;;;;5069058;28;20218;-57
2023/12/13 09:34:16;;;;;;;17.07;7.23;;;8.90;99.90;;;;;;5041535;28;20251;-57
2023/12/13 09:36:44;;;;;;;15.50;6.97;;;8.90;99.90;;;;;;5050215;28;20869;-56
2023/12/13 09:39:15;;;;;;;18.90;7.03;;;8.90;99.90;;;;;;5044647;28;20243;-57
2023/12/13 09:41:53;;;;;;;18.23;6.90;;;8.90;99.90;;;;;;5056452;28;20213;-56
2023/12/13 09:44:23;;;;;;;17.87;6.57;;;8.90;99.90;;;;;;5056650;28;20586;-57
2023/12/13 09:46:55;;;;;;;15.53;7.07;;;9.00;99.90;;;;;;5040614;28;20211;-57
2023/12/13 09:49:24;;;;;;;16.00;7.53;;;9.00;99.90;;;;;;5053282;28;20213;-57
2023/12/13 09:52:07;;;;;;;19.37;7.30;;;9.00;99.90;;;;;;5050410;28;20220;-57
2023/12/13 09:54:37;;;;;;;21.83;7.23;;;9.00;99.90;;;;;;5051522;28;20216;-56
2023/12/13 09:57:06;;;;;;;17.37;7.07;;;8.90;99.90;;;;;;5057256;28;20217;-57
2023/12/13 09:59:34;;;;;;;20.47;7.20;;;8.90;99.90;;;;;;5064246;28;20565;-58
2023/12/13 10:02:04;;;;;;;12.17;6.93;;;8.90;99.90;;;;;;5061793;28;20192;-57
2023/12/13 10:04:33;;;;;;;19.50;7.60;;;8.90;99.90;;;;;;5066877;28;20198;-58
2023/12/13 10:07:01;;;;;;;18.03;7.57;;;8.80;99.90;;;;;;5066724;28;20582;-57
2023/12/13 10:09:29;;;;;;;16.63;7.20;;;8.80;99.90;;;;;;5061748;28;20241;-57
2023/12/13 10:11:58;;;;;;;14.57;6.70;;;8.80;99.90;;;;;;5057382;28;20730;-57
2023/12/13 10:14:27;;;;;;;21.90;7.43;;;8.80;99.90;;;;;;5042132;28;20216;-57
2023/12/13 10:16:57;;;;;;;13.73;6.70;;;8.90;99.90;;;;;;5050060;28;20193;-57
2023/12/13 10:19:41;;;;;;;16.37;7.43;;;8.90;99.90;;;;;;5046111;28;20196;-57
2023/12/13 10:22:09;;;;;;;15.37;7.20;;;8.90;99.90;;;;;;5062004;28;20212;-57
2023/12/13 10:24:38;;;;;;;16.70;7.13;;;9.00;99.90;;;;;;5056440;28;20219;-57
2023/12/13 10:27:07;;;;;;;13.50;7.27;;;9.10;99.90;;;;;;5050828;28;20224;-57
2023/12/13 10:29:35;;;;;;;16.30;7.57;;;9.10;99.90;;;;;;5053810;28;20231;-57
2023/12/13 10:32:03;;;;;;;15.17;7.50;;;9.20;99.90;;;;;;5051402;28;20200;-56
2023/12/13 10:34:32;;;;;;;16.37;7.00;;;9.10;99.90;;;;;;5044801;28;20307;-57
2023/12/13 10:37:01;;;;;;;16.37;6.73;;;9.10;99.90;;;;;;5046748;28;20582;-57
2023/12/13 10:39:32;;;;;;;17.17;7.40;;;9.10;99.90;;;;;;5064825;28;20235;-57
2023/12/13 10:42:02;;;;;;;14.23;6.63;;;9.10;99.90;;;;;;5059974;28;20213;-57
2023/12/13 10:44:32;;;;;;;14.40;6.60;;;9.10;99.90;;;;;;5049080;28;20717;-57
2023/12/13 10:47:09;;;;;;;12.83;6.63;;;9.10;99.90;;;;;;5046745;28;20581;-57
2023/12/13 10:49:38;;;;;;;15.53;7.70;;;9.10;99.90;;;;;;5048678;28;20213;-57
2023/12/13 10:52:10;;;;;;;19.13;7.60;;;9.10;99.90;;;;;;5041717;28;20220;-57
2023/12/13 10:54:39;;;;;;;11.53;8.07;;;9.10;99.90;;;;;;5050693;28;20221;-57
2023/12/13 10:57:09;;;;;;;15.37;7.97;;;9.00;99.90;;;;;;5049186;28;20233;-57
2023/12/13 10:59:38;;;;;;;20.50;8.77;;;9.10;99.90;;;;;;5045891;28;20278;-56
2023/12/13 11:02:08;;;;;;;17.07;8.43;;;9.10;99.90;;;;;;5048335;28;20193;-57
2023/12/13 11:04:37;;;;;;;24.27;9.43;;;9.20;99.90;;;;;;5044810;28;20284;-57
2023/12/13 11:07:06;;;;;;;19.43;8.73;;;9.30;99.90;;;;;;5045770;28;20227;-58
2023/12/13 11:09:49;;;;;;;19.93;8.90;;;9.50;99.90;;;;;;5045090;28;20209;-56
2023/12/13 11:12:40;;;;;;;20.43;10.90;;;9.60;99.90;;;;;;5050353;28;20227;-57
2023/12/13 11:15:14;;;;;;;17.73;9.20;;;9.80;99.90;;;;;;5056518;28;20255;-57
2023/12/13 11:17:46;;;;;;;14.77;9.20;;;9.80;99.90;;;;;;5066928;28;20228;-57
2023/12/13 11:20:16;;;;;;;14.43;8.97;;;9.80;99.90;;;;;;5066495;28;20239;-57
2023/12/13 11:22:47;;;;;;;14.90;8.60;;;9.90;99.90;;;;;;5050688;28;20228;-56
2023/12/13 11:25:18;;;;;;;14.53;9.00;;;9.90;99.90;;;;;;5048179;28;20698;-57
2023/12/13 11:27:53;;;;;;;18.17;9.47;;;10.10;99.90;;;;;;5046912;28;20241;-57
2023/12/13 11:30:22;;;;;;;14.27;8.93;;;10.20;99.90;;;;;;5044771;28;20243;-57
2023/12/13 11:32:51;;;;;;;13.27;8.63;;;10.30;99.90;;;;;;5048232;28;20220;-58
2023/12/13 11:35:21;;;;;;;14.07;8.43;;;10.30;99.90;;;;;;5051590;28;20689;-57
2023/12/13 11:37:54;;;;;;;19.10;8.30;;;10.10;99.90;;;;;;5051200;28;20531;-57
2023/12/13 11:40:24;;;;;;;14.10;8.70;;;10.00;99.90;;;;;;5042930;28;21509;-56
2023/12/13 11:42:55;;;;;;;14.83;8.07;;;10.00;99.90;;;;;;5043674;28;20223;-58
2023/12/13 11:45:23;;;;;;;18.10;9.40;;;9.90;99.90;;;;;;5051381;28;20220;-57
2023/12/13 11:47:51;;;;;;;14.07;8.40;;;9.80;99.90;;;;;;5054986;28;20221;-57
2023/12/13 11:50:21;;;;;;;16.63;8.17;;;9.80;99.90;;;;;;5046370;28;20767;-57
2023/12/13 11:52:49;;;;;;;11.00;8.17;;;9.80;99.90;;;;;;5045640;28;20271;-58
2023/12/13 11:55:19;;;;;;;14.63;7.67;;;9.90;99.90;;;;;;5039077;28;20646;-57
2023/12/13 11:57:53;;;;;;;12.47;7.83;;;10.00;99.90;;;;;;5043341;28;20737;-57
2023/12/13 12:00:22;;;;;;;11.53;7.93;;;10.10;99.90;;;;;;5059375;28;20208;-57
2023/12/13 12:02:53;;;;;;;9.57;6.77;;;10.10;99.90;;;;;;5061909;28;20220;-57
2023/12/13 12:05:23;;;;;;;10.90;7.60;;;10.10;99.90;;;;;;5059145;28;20231;-58
2023/12/13 12:07:59;;;;;;;9.73;7.43;;;10.00;99.90;;;;;;5040911;28;20224;-58
2023/12/13 12:10:27;;;;;;;14.07;7.60;;;10.00;99.90;;;;;;5047785;28;20270;-57
2023/12/13 12:13:00;;;;;;;10.87;7.90;;;10.00;99.90;;;;;;5070009;28;20364;-56
2023/12/13 12:15:28;;;;;;;12.57;7.77;;;10.10;99.90;;;;;;5050103;28;20231;-56
2023/12/13 12:17:56;;;;;;;12.27;7.57;;;10.00;99.90;;;;;;5048430;28;20567;-56
2023/12/13 12:20:26;;;;;;;12.10;8.27;;;10.00;99.90;;;;;;5048794;28;20639;-57
2023/12/13 12:22:55;;;;;;;13.93;8.30;;;9.90;99.90;;;;;;5064958;28;20184;-57
2023/12/13 12:25:25;;;;;;;16.67;8.70;;;9.90;99.90;;;;;;5065444;28;20818;-57
2023/12/13 12:27:54;;;;;;;12.43;8.47;;;9.80;99.90;;;;;;5083548;28;20262;-57
2023/12/13 12:30:25;;;;;;;16.50;8.70;;;9.80;99.90;;;;;;5071371;28;20226;-56
2023/12/13 12:32:53;;;;;;;10.30;8.83;;;9.80;99.90;;;;;;5067622;28;20219;-58
2023/12/13 12:35:22;;;;;;;12.53;8.97;;;9.70;99.90;;;;;;5072758;28;20219;-57
2023/12/13 12:37:52;;;;;;;11.53;8.50;;;9.70;99.90;;;;;;5073538;28;20398;-57
2023/12/13 12:40:20;;;;;;;14.73;9.13;;;9.70;99.90;;;;;;5071004;28;20547;-58
2023/12/13 12:42:48;;;;;;;21.33;10.43;;;9.70;99.90;;;;;;5069427;28;20216;-57
2023/12/13 12:45:17;;;;;;;14.40;10.60;;;9.80;99.90;;;;;;5068776;28;20222;-57
2023/12/13 12:47:46;;;;;;;17.07;9.67;;;9.80;99.90;;;;;;5062617;28;20236;-58
2023/12/13 12:50:15;;;;;;;12.17;9.67;;;9.90;99.90;;;;;;5071009;28;20806;-58
2023/12/13 12:52:44;;;;;;;13.53;10.20;;;10.00;99.90;;;;;;5064801;28;20675;-57
2023/12/13 12:55:12;;;;;;;16.00;10.00;;;10.20;99.90;;;;;;5071216;28;20290;-57